sensor_id;sensor_type;location;lat;lon;timestamp;temperature;humidity
20700;DHT22;10511;51.232;9.420;2023-02-28T00:00:17;-0.10;99.90
20700;DHT22;10511;51.232;9.420;2023-02-28T00:02:45;-0.10;99.90
20700;DHT22;10511;51.232;9.420;2023-02-28T00:05:14;-0.10;99.90
20700;DHT22;10511;51.232;9.420;2023-02-28T00:07:41;-0.10;99.90
20700;DHT22;10511;51.232;9.420;2023-02-28T00:10:10;-0.10;99.90
20700;DHT22;10511;51.232;9.420;2023-02-28T00:12:39;-0.10;99.90
20700;DHT22;10511;51.232;9.420;2023-02-28T00:15:06;-0.10;99.90
20700;DHT22;10511;51.232;9.420;2023-02-28T00:17:33;-0.20;99.90
20700;DHT22;10511;51.232;9.420;2023-02-28T00:20:01;-0.20;99.90
20700;DHT22;10511;51.232;9.420;2023-02-28T00:22:38;-0.20;99.90
20700;DHT22;10511;51.232;9.420;2023-02-28T00:25:06;-0.20;99.90
20700;DHT22;10511;51.232;9.420;2023-02-28T00:27:33;-0.20;99.90
20700;DHT22;10511;51.232;9.420;2023-02-28T00:30:02;-0.20;99.90
20700;DHT22;10511;51.232;9.420;2023-02-28T00:32:29;-0.10;99.90
20700;DHT22;10511;51.232;9.420;2023-02-28T00:34:56;-0.20;99.90
20700;DHT22;10511;51.232;9.420;2023-02-28T00:37:23;-0.20;99.90
20700;DHT22;10511;51.232;9.420;2023-02-28T00:39:50;-0.20;99.90
20700;DHT22;10511;51.232;9.420;2023-02-28T00:42:17;-0.20;99.90
20700;DHT22;10511;51.232;9.420;2023-02-28T00:44:43;-0.30;99.90
20700;DHT22;10511;51.232;9.420;2023-02-28T00:47:12;-0.30;99.90
20700;DHT22;10511;51.232;9.420;2023-02-28T00:49:38;-0.40;99.90
20700;DHT22;10511;51.232;9.420;2023-02-28T00:52:06;-0.40;99.90
20700;DHT22;10511;51.232;9.420;2023-02-28T00:54:33;-0.40;99.90
20700;DHT22;10511;51.232;9.420;2023-02-28T00:56:59;-0.40;99.90
20700;DHT22;10511;51.232;9.420;2023-02-28T00:59:27;-0.50;99.90
20700;DHT22;10511;51.232;9.420;2023-02-28T01:01:54;-0.40;99.90
20700;DHT22;10511;51.232;9.420;2023-02-28T01:04:22;-0.50;99.90
20700;DHT22;10511;51.232;9.420;2023-02-28T01:06:49;-0.50;99.90
20700;DHT22;10511;51.232;9.420;2023-02-28T01:09:16;-0.50;99.90
20700;DHT22;10511;51.232;9.420;2023-02-28T01:11:43;-0.50;99.90
20700;DHT22;10511;51.232;9.420;2023-02-28T01:14:13;-0.40;99.90
20700;DHT22;10511;51.232;9.420;2023-02-28T01:16:40;-0.40;99.90
20700;DHT22;10511;51.232;9.420;2023-02-28T01:19:07;-0.50;99.90
20700;DHT22;10511;51.232;9.420;2023-02-28T01:21:35;-0.40;99.90
20700;DHT22;10511;51.232;9.420;2023-02-28T01:24:02;-0.40;99.90
20700;DHT22;10511;51.232;9.420;2023-02-28T01:26:30;-0.40;99.90
20700;DHT22;10511;51.232;9.420;2023-02-28T01:28:57;-0.40;99.90
20700;DHT22;10511;51.232;9.420;2023-02-28T01:31:25;-0.40;99.90
20700;DHT22;10511;51.232;9.420;2023-02-28T01:33:52;-0.40;99.90
20700;DHT22;10511;51.232;9.420;2023-02-28T01:36:21;-0.40;99.90
20700;DHT22;10511;51.232;9.420;2023-02-28T01:38:50;-0.40;99.90
20700;DHT22;10511;51.232;9.420;2023-02-28T01:41:21;-0.50;99.90
20700;DHT22;10511;51.232;9.420;2023-02-28T01:43:58;-0.50;99.90
20700;DHT22;10511;51.232;9.420;2023-02-28T01:46:25;-0.50;99.90
20700;DHT22;10511;51.232;9.420;2023-02-28T01:48:56;-0.50;99.90
20700;DHT22;10511;51.232;9.420;2023-02-28T01:51:28;-0.50;99.90
20700;DHT22;10511;51.232;9.420;2023-02-28T01:54:05;-0.50;99.90
20700;DHT22;10511;51.232;9.420;2023-02-28T01:56:41;-0.50;99.90
20700;DHT22;10511;51.232;9.420;2023-02-28T01:59:09;-0.50;99.90
20700;DHT22;10511;51.232;9.420;2023-02-28T02:01:36;-0.50;99.90
20700;DHT22;10511;51.232;9.420;2023-02-28T02:04:04;-0.50;99.90
20700;DHT22;10511;51.232;9.420;2023-02-28T02:06:40;-0.50;99.90
20700;DHT22;10511;51.232;9.420;2023-02-28T02:09:08;-0.50;99.90
20700;DHT22;10511;51.232;9.420;2023-02-28T02:11:36;-0.50;99.90
20700;DHT22;10511;51.232;9.420;2023-02-28T02:17:07;-0.50;99.90
20700;DHT22;10511;51.232;9.420;2023-02-28T02:20:10;-0.50;99.90
20700;DHT22;10511;51.232;9.420;2023-02-28T02:23:07;-0.50;99.90
20700;DHT22;10511;51.232;9.420;2023-02-28T02:26:15;-0.50;99.90
20700;DHT22;10511;51.232;9.420;2023-02-28T02:29:19;-0.40;99.90
20700;DHT22;10511;51.232;9.420;2023-02-28T02:32:04;-0.50;99.90
20700;DHT22;10511;51.232;9.420;2023-02-28T02:34:50;-0.40;99.90
20700;DHT22;10511;51.232;9.420;2023-02-28T02:37:26;-0.40;99.90
20700;DHT22;10511;51.232;9.420;2023-02-28T02:40:01;-0.40;99.90
20700;DHT22;10511;51.232;9.420;2023-02-28T02:42:40;-0.40;99.90
20700;DHT22;10511;51.232;9.420;2023-02-28T02:45:11;-0.50;99.90
20700;DHT22;10511;51.232;9.420;2023-02-28T02:47:39;-0.50;99.90
20700;DHT22;10511;51.232;9.420;2023-02-28T02:50:13;-0.50;99.90
20700;DHT22;10511;51.232;9.420;2023-02-28T02:52:46;-0.50;99.90
20700;DHT22;10511;51.232;9.420;2023-02-28T02:55:15;-0.50;99.90
20700;DHT22;10511;51.232;9.420;2023-02-28T02:57:47;-0.40;99.90
20700;DHT22;10511;51.232;9.420;2023-02-28T03:00:16;-0.50;99.90
20700;DHT22;10511;51.232;9.420;2023-02-28T03:02:44;-0.50;99.90
20700;DHT22;10511;51.232;9.420;2023-02-28T03:05:19;-0.50;99.90
20700;DHT22;10511;51.232;9.420;2023-02-28T03:07:46;-0.50;99.90
20700;DHT22;10511;51.232;9.420;2023-02-28T03:10:31;-0.50;99.90
20700;DHT22;10511;51.232;9.420;2023-02-28T03:13:25;-0.40;99.90
20700;DHT22;10511;51.232;9.420;2023-02-28T03:16:08;-0.50;99.90
20700;DHT22;10511;51.232;9.420;2023-02-28T03:18:44;-0.50;99.90
20700;DHT22;10511;51.232;9.420;2023-02-28T03:21:23;-0.50;99.90
20700;DHT22;10511;51.232;9.420;2023-02-28T03:23:56;-0.40;99.90
20700;DHT22;10511;51.232;9.420;2023-02-28T03:26:27;-0.50;99.90
20700;DHT22;10511;51.232;9.420;2023-02-28T03:28:58;-0.50;99.90
20700;DHT22;10511;51.232;9.420;2023-02-28T03:31:31;-0.50;99.90
20700;DHT22;10511;51.232;9.420;2023-02-28T03:34:03;-0.50;99.90
20700;DHT22;10511;51.232;9.420;2023-02-28T03:36:35;-0.50;99.90
20700;DHT22;10511;51.232;9.420;2023-02-28T03:39:12;-0.50;99.90
20700;DHT22;10511;51.232;9.420;2023-02-28T03:41:43;-0.60;99.90
20700;DHT22;10511;51.232;9.420;2023-02-28T03:44:16;-0.50;99.90
20700;DHT22;10511;51.232;9.420;2023-02-28T03:46:48;-0.60;99.90
20700;DHT22;10511;51.232;9.420;2023-02-28T03:49:19;-0.50;99.90
20700;DHT22;10511;51.232;9.420;2023-02-28T03:51:49;-0.50;99.90
20700;DHT22;10511;51.232;9.420;2023-02-28T03:54:18;-0.50;99.90
20700;DHT22;10511;51.232;9.420;2023-02-28T03:56:53;-0.50;99.90
20700;DHT22;10511;51.232;9.420;2023-02-28T03:59:26;-0.50;99.90
20700;DHT22;10511;51.232;9.420;2023-02-28T04:01:55;-0.50;99.90
20700;DHT22;10511;51.232;9.420;2023-02-28T04:04:24;-0.40;99.90
20700;DHT22;10511;51.232;9.420;2023-02-28T04:06:53;-0.40;99.90
20700;DHT22;10511;51.232;9.420;2023-02-28T04:09:27;-0.40;99.90
20700;DHT22;10511;51.232;9.420;2023-02-28T04:11:54;-0.40;99.90
20700;DHT22;10511;51.232;9.420;2023-02-28T04:14:22;-0.40;99.90
20700;DHT22;10511;51.232;9.420;2023-02-28T04:16:48;-0.40;99.90
20700;DHT22;10511;51.232;9.420;2023-02-28T04:19:16;-0.40;99.90
20700;DHT22;10511;51.232;9.420;2023-02-28T04:21:44;-0.40;99.90
20700;DHT22;10511;51.232;9.420;2023-02-28T04:24:14;-0.40;99.90
20700;DHT22;10511;51.232;9.420;2023-02-28T04:26:43;-0.40;99.90
20700;DHT22;10511;51.232;9.420;2023-02-28T04:29:11;-0.40;99.90
20700;DHT22;10511;51.232;9.420;2023-02-28T04:31:39;-0.40;99.90
20700;DHT22;10511;51.232;9.420;2023-02-28T04:34:06;-0.40;99.90
20700;DHT22;10511;51.232;9.420;2023-02-28T04:36:33;-0.40;99.90
20700;DHT22;10511;51.232;9.420;2023-02-28T04:38:59;-0.40;99.90
20700;DHT22;10511;51.232;9.420;2023-02-28T04:41:28;-0.50;99.90
20700;DHT22;10511;51.232;9.420;2023-02-28T04:43:54;-0.50;99.90
20700;DHT22;10511;51.232;9.420;2023-02-28T04:46:22;-0.50;99.90
20700;DHT22;10511;51.232;9.420;2023-02-28T04:48:49;-0.50;99.90
20700;DHT22;10511;51.232;9.420;2023-02-28T04:51:17;-0.50;99.90
20700;DHT22;10511;51.232;9.420;2023-02-28T04:53:45;-0.50;99.90
20700;DHT22;10511;51.232;9.420;2023-02-28T04:56:14;-0.50;99.90
20700;DHT22;10511;51.232;9.420;2023-02-28T04:58:43;-0.40;99.90
20700;DHT22;10511;51.232;9.420;2023-02-28T05:01:19;-0.50;99.90
20700;DHT22;10511;51.232;9.420;2023-02-28T05:03:47;-0.50;99.90
20700;DHT22;10511;51.232;9.420;2023-02-28T05:06:15;-0.50;99.90
20700;DHT22;10511;51.232;9.420;2023-02-28T05:08:42;-0.50;99.90
20700;DHT22;10511;51.232;9.420;2023-02-28T05:11:15;-0.50;99.90
20700;DHT22;10511;51.232;9.420;2023-02-28T05:13:45;-0.50;99.90
20700;DHT22;10511;51.232;9.420;2023-02-28T05:16:12;-0.60;99.90
20700;DHT22;10511;51.232;9.420;2023-02-28T05:18:39;-0.60;99.90
20700;DHT22;10511;51.232;9.420;2023-02-28T05:21:06;-0.60;99.90
20700;DHT22;10511;51.232;9.420;2023-02-28T05:23:45;-0.70;99.90
20700;DHT22;10511;51.232;9.420;2023-02-28T05:26:12;-0.70;99.90
20700;DHT22;10511;51.232;9.420;2023-02-28T05:28:39;-0.70;99.90
20700;DHT22;10511;51.232;9.420;2023-02-28T05:31:08;-0.70;99.90
20700;DHT22;10511;51.232;9.420;2023-02-28T05:33:34;-0.70;99.90
20700;DHT22;10511;51.232;9.420;2023-02-28T05:36:01;-0.70;99.90
20700;DHT22;10511;51.232;9.420;2023-02-28T05:38:28;-0.70;99.90
20700;DHT22;10511;51.232;9.420;2023-02-28T05:40:55;-0.70;99.90
20700;DHT22;10511;51.232;9.420;2023-02-28T05:43:22;-0.70;99.90
20700;DHT22;10511;51.232;9.420;2023-02-28T05:45:49;-0.70;99.90
20700;DHT22;10511;51.232;9.420;2023-02-28T05:48:17;-0.70;99.90
20700;DHT22;10511;51.232;9.420;2023-02-28T05:50:44;-0.70;99.90
20700;DHT22;10511;51.232;9.420;2023-02-28T05:53:12;-0.70;99.90
20700;DHT22;10511;51.232;9.420;2023-02-28T05:55:39;-0.70;99.90
20700;DHT22;10511;51.232;9.420;2023-02-28T05:58:06;-0.80;99.90
20700;DHT22;10511;51.232;9.420;2023-02-28T06:00:33;-0.80;99.90
20700;DHT22;10511;51.232;9.420;2023-02-28T06:03:00;-0.80;99.90
20700;DHT22;10511;51.232;9.420;2023-02-28T06:05:28;-0.70;99.90
20700;DHT22;10511;51.232;9.420;2023-02-28T06:07:55;-0.70;99.90
20700;DHT22;10511;51.232;9.420;2023-02-28T06:10:22;-0.80;99.90
20700;DHT22;10511;51.232;9.420;2023-02-28T06:12:49;-0.70;99.90
20700;DHT22;10511;51.232;9.420;2023-02-28T06:15:16;-0.70;99.90
20700;DHT22;10511;51.232;9.420;2023-02-28T06:17:44;-0.70;99.90
20700;DHT22;10511;51.232;9.420;2023-02-28T06:20:12;-0.70;99.90
20700;DHT22;10511;51.232;9.420;2023-02-28T06:22:41;-0.70;99.90
20700;DHT22;10511;51.232;9.420;2023-02-28T06:25:09;-0.70;99.90
20700;DHT22;10511;51.232;9.420;2023-02-28T06:27:37;-0.70;99.90
20700;DHT22;10511;51.232;9.420;2023-02-28T06:30:04;-0.70;99.90
20700;DHT22;10511;51.232;9.420;2023-02-28T06:32:31;-0.60;99.90
20700;DHT22;10511;51.232;9.420;2023-02-28T06:34:58;-0.60;99.90
20700;DHT22;10511;51.232;9.420;2023-02-28T06:37:25;-0.60;99.90
20700;DHT22;10511;51.232;9.420;2023-02-28T06:39:54;-0.70;99.90
20700;DHT22;10511;51.232;9.420;2023-02-28T06:42:21;-0.60;99.90
20700;DHT22;10511;51.232;9.420;2023-02-28T06:44:50;-0.70;99.90
20700;DHT22;10511;51.232;9.420;2023-02-28T06:47:17;-0.60;99.90
20700;DHT22;10511;51.232;9.420;2023-02-28T06:49:44;-0.60;99.90
20700;DHT22;10511;51.232;9.420;2023-02-28T06:52:11;-0.60;99.90
20700;DHT22;10511;51.232;9.420;2023-02-28T06:54:38;-0.70;99.90
20700;DHT22;10511;51.232;9.420;2023-02-28T06:57:06;-0.70;99.90
20700;DHT22;10511;51.232;9.420;2023-02-28T06:59:33;-0.80;99.90
20700;DHT22;10511;51.232;9.420;2023-02-28T07:02:01;-0.80;99.90
20700;DHT22;10511;51.232;9.420;2023-02-28T07:04:28;-0.80;99.90
20700;DHT22;10511;51.232;9.420;2023-02-28T07:06:55;-0.80;99.90
20700;DHT22;10511;51.232;9.420;2023-02-28T07:09:22;-0.80;99.90
20700;DHT22;10511;51.232;9.420;2023-02-28T07:11:49;-0.80;99.90
20700;DHT22;10511;51.232;9.420;2023-02-28T07:14:17;-0.80;99.90
20700;DHT22;10511;51.232;9.420;2023-02-28T07:16:44;-0.70;99.90
20700;DHT22;10511;51.232;9.420;2023-02-28T07:19:11;-0.70;99.90
20700;DHT22;10511;51.232;9.420;2023-02-28T07:21:38;-0.60;99.90
20700;DHT22;10511;51.232;9.420;2023-02-28T07:24:05;-0.60;99.90
20700;DHT22;10511;51.232;9.420;2023-02-28T07:26:32;-0.50;99.90
20700;DHT22;10511;51.232;9.420;2023-02-28T07:29:00;-0.40;99.90
20700;DHT22;10511;51.232;9.420;2023-02-28T07:31:29;-0.40;99.90
20700;DHT22;10511;51.232;9.420;2023-02-28T07:33:55;-0.30;99.90
20700;DHT22;10511;51.232;9.420;2023-02-28T07:36:22;-0.20;99.90
20700;DHT22;10511;51.232;9.420;2023-02-28T07:38:49;-0.10;99.90
20700;DHT22;10511;51.232;9.420;2023-02-28T07:41:17;0.00;99.90
20700;DHT22;10511;51.232;9.420;2023-02-28T07:43:45;0.10;99.90
20700;DHT22;10511;51.232;9.420;2023-02-28T07:46:14;0.20;99.90
20700;DHT22;10511;51.232;9.420;2023-02-28T07:48:43;0.20;99.90
20700;DHT22;10511;51.232;9.420;2023-02-28T07:51:10;0.20;99.90
20700;DHT22;10511;51.232;9.420;2023-02-28T07:53:37;0.20;99.90
20700;DHT22;10511;51.232;9.420;2023-02-28T07:56:05;0.30;99.90
20700;DHT22;10511;51.232;9.420;2023-02-28T07:58:32;0.30;99.90
20700;DHT22;10511;51.232;9.420;2023-02-28T08:01:05;0.30;99.90
20700;DHT22;10511;51.232;9.420;2023-02-28T08:03:32;0.40;99.90
20700;DHT22;10511;51.232;9.420;2023-02-28T08:06:00;0.40;99.90
20700;DHT22;10511;51.232;9.420;2023-02-28T08:08:27;0.50;99.90
20700;DHT22;10511;51.232;9.420;2023-02-28T08:10:58;0.50;99.90
20700;DHT22;10511;51.232;9.420;2023-02-28T08:13:25;0.50;99.90
20700;DHT22;10511;51.232;9.420;2023-02-28T08:15:52;0.50;99.90
20700;DHT22;10511;51.232;9.420;2023-02-28T08:18:19;0.60;99.90
20700;DHT22;10511;51.232;9.420;2023-02-28T08:20:46;0.60;99.90
20700;DHT22;10511;51.232;9.420;2023-02-28T08:23:14;0.60;99.90
20700;DHT22;10511;51.232;9.420;2023-02-28T08:25:41;0.60;99.90
20700;DHT22;10511;51.232;9.420;2023-02-28T08:28:08;0.60;99.90
20700;DHT22;10511;51.232;9.420;2023-02-28T08:30:35;0.50;99.90
20700;DHT22;10511;51.232;9.420;2023-02-28T08:33:02;0.50;99.90
20700;DHT22;10511;51.232;9.420;2023-02-28T08:35:28;0.50;99.90
20700;DHT22;10511;51.232;9.420;2023-02-28T08:37:55;0.40;99.90
20700;DHT22;10511;51.232;9.420;2023-02-28T08:40:24;0.40;99.90
20700;DHT22;10511;51.232;9.420;2023-02-28T08:42:51;0.60;99.90
20700;DHT22;10511;51.232;9.420;2023-02-28T08:45:18;0.80;99.90
20700;DHT22;10511;51.232;9.420;2023-02-28T08:47:46;1.10;99.90
20700;DHT22;10511;51.232;9.420;2023-02-28T08:50:12;1.20;99.90
20700;DHT22;10511;51.232;9.420;2023-02-28T08:52:42;1.20;99.90
20700;DHT22;10511;51.232;9.420;2023-02-28T08:55:35;1.20;99.90
20700;DHT22;10511;51.232;9.420;2023-02-28T08:58:28;1.20;99.90
20700;DHT22;10511;51.232;9.420;2023-02-28T09:00:56;1.30;99.90
20700;DHT22;10511;51.232;9.420;2023-02-28T09:03:23;1.60;99.90
20700;DHT22;10511;51.232;9.420;2023-02-28T09:05:58;1.80;99.90
20700;DHT22;10511;51.232;9.420;2023-02-28T09:08:26;1.80;99.90
20700;DHT22;10511;51.232;9.420;2023-02-28T09:10:53;1.80;99.90
20700;DHT22;10511;51.232;9.420;2023-02-28T09:13:22;1.80;99.90
20700;DHT22;10511;51.232;9.420;2023-02-28T09:15:51;1.80;99.90
20700;DHT22;10511;51.232;9.420;2023-02-28T09:18:18;1.80;99.90
20700;DHT22;10511;51.232;9.420;2023-02-28T09:20:45;1.70;99.90
20700;DHT22;10511;51.232;9.420;2023-02-28T09:23:13;1.60;99.90
20700;DHT22;10511;51.232;9.420;2023-02-28T09:25:46;1.50;99.90
20700;DHT22;10511;51.232;9.420;2023-02-28T09:28:13;1.60;99.90
20700;DHT22;10511;51.232;9.420;2023-02-28T09:30:42;1.60;99.90
20700;DHT22;10511;51.232;9.420;2023-02-28T09:33:10;1.60;99.90
20700;DHT22;10511;51.232;9.420;2023-02-28T09:35:37;1.60;99.90
20700;DHT22;10511;51.232;9.420;2023-02-28T09:38:04;1.60;99.90
20700;DHT22;10511;51.232;9.420;2023-02-28T09:40:36;1.90;99.90
20700;DHT22;10511;51.232;9.420;2023-02-28T09:43:03;2.10;99.90
20700;DHT22;10511;51.232;9.420;2023-02-28T09:45:35;2.10;99.90
20700;DHT22;10511;51.232;9.420;2023-02-28T09:48:06;2.20;99.90
20700;DHT22;10511;51.232;9.420;2023-02-28T09:50:39;2.40;99.90
20700;DHT22;10511;51.232;9.420;2023-02-28T09:53:13;2.80;99.90
20700;DHT22;10511;51.232;9.420;2023-02-28T09:55:44;3.00;99.90
20700;DHT22;10511;51.232;9.420;2023-02-28T09:58:17;3.10;99.90
20700;DHT22;10511;51.232;9.420;2023-02-28T10:00:48;3.20;99.90
20700;DHT22;10511;51.232;9.420;2023-02-28T10:03:36;3.30;99.90
20700;DHT22;10511;51.232;9.420;2023-02-28T10:06:12;3.20;99.90
20700;DHT22;10511;51.232;9.420;2023-02-28T10:08:42;3.20;99.90
20700;DHT22;10511;51.232;9.420;2023-02-28T10:11:15;3.40;99.90
20700;DHT22;10511;51.232;9.420;2023-02-28T10:13:50;3.70;99.90
20700;DHT22;10511;51.232;9.420;2023-02-28T10:16:24;3.80;99.90
20700;DHT22;10511;51.232;9.420;2023-02-28T10:18:56;3.70;99.90
20700;DHT22;10511;51.232;9.420;2023-02-28T10:21:27;3.70;99.90
20700;DHT22;10511;51.232;9.420;2023-02-28T10:24:02;3.90;99.90
20700;DHT22;10511;51.232;9.420;2023-02-28T10:26:31;3.80;99.90
20700;DHT22;10511;51.232;9.420;2023-02-28T10:28:59;3.70;99.90
20700;DHT22;10511;51.232;9.420;2023-02-28T10:31:26;3.70;99.90
20700;DHT22;10511;51.232;9.420;2023-02-28T10:33:53;3.80;99.90
20700;DHT22;10511;51.232;9.420;2023-02-28T10:36:21;4.00;99.90
20700;DHT22;10511;51.232;9.420;2023-02-28T10:38:50;3.90;99.90
20700;DHT22;10511;51.232;9.420;2023-02-28T10:41:27;3.80;99.90
20700;DHT22;10511;51.232;9.420;2023-02-28T10:44:13;3.90;99.90
20700;DHT22;10511;51.232;9.420;2023-02-28T10:46:40;4.00;99.90
20700;DHT22;10511;51.232;9.420;2023-02-28T10:49:14;4.10;99.90
20700;DHT22;10511;51.232;9.420;2023-02-28T10:51:42;4.40;99.90
20700;DHT22;10511;51.232;9.420;2023-02-28T10:54:18;4.60;99.90
20700;DHT22;10511;51.232;9.420;2023-02-28T10:56:45;4.70;99.90
20700;DHT22;10511;51.232;9.420;2023-02-28T10:59:28;4.60;99.90
20700;DHT22;10511;51.232;9.420;2023-02-28T11:01:56;4.70;99.50
20700;DHT22;10511;51.232;9.420;2023-02-28T11:04:34;4.50;99.90
20700;DHT22;10511;51.232;9.420;2023-02-28T11:07:05;4.30;99.90
20700;DHT22;10511;51.232;9.420;2023-02-28T11:09:35;4.30;99.90
20700;DHT22;10511;51.232;9.420;2023-02-28T11:12:06;4.30;99.90
20700;DHT22;10511;51.232;9.420;2023-02-28T11:14:39;4.10;99.90
20700;DHT22;10511;51.232;9.420;2023-02-28T11:17:13;3.80;99.90
20700;DHT22;10511;51.232;9.420;2023-02-28T11:19:49;4.00;99.90
20700;DHT22;10511;51.232;9.420;2023-02-28T11:22:19;4.10;99.90
20700;DHT22;10511;51.232;9.420;2023-02-28T11:24:50;4.40;99.90
20700;DHT22;10511;51.232;9.420;2023-02-28T11:27:44;4.50;99.90
20700;DHT22;10511;51.232;9.420;2023-02-28T11:30:31;4.60;99.90
20700;DHT22;10511;51.232;9.420;2023-02-28T11:32:59;4.40;99.90
20700;DHT22;10511;51.232;9.420;2023-02-28T11:35:30;4.30;99.90
20700;DHT22;10511;51.232;9.420;2023-02-28T11:38:00;3.80;99.90
20700;DHT22;10511;51.232;9.420;2023-02-28T11:40:34;4.10;99.90
20700;DHT22;10511;51.232;9.420;2023-02-28T11:43:12;4.40;99.90
20700;DHT22;10511;51.232;9.420;2023-02-28T11:45:54;4.20;99.80
20700;DHT22;10511;51.232;9.420;2023-02-28T11:48:28;4.40;99.90
20700;DHT22;10511;51.232;9.420;2023-02-28T11:51:06;4.60;99.90
20700;DHT22;10511;51.232;9.420;2023-02-28T11:53:53;4.70;99.90
20700;DHT22;10511;51.232;9.420;2023-02-28T11:56:31;4.70;99.50
20700;DHT22;10511;51.232;9.420;2023-02-28T11:59:12;4.90;99.80
20700;DHT22;10511;51.232;9.420;2023-02-28T12:02:02;5.20;99.90
20700;DHT22;10511;51.232;9.420;2023-02-28T12:04:38;5.30;99.90
20700;DHT22;10511;51.232;9.420;2023-02-28T12:07:16;5.10;99.20
20700;DHT22;10511;51.232;9.420;2023-02-28T12:09:53;4.90;99.70
20700;DHT22;10511;51.232;9.420;2023-02-28T12:12:37;4.80;98.80
20700;DHT22;10511;51.232;9.420;2023-02-28T12:15:38;4.90;99.90
20700;DHT22;10511;51.232;9.420;2023-02-28T12:18:22;5.00;98.90
20700;DHT22;10511;51.232;9.420;2023-02-28T12:20:55;5.20;99.40
20700;DHT22;10511;51.232;9.420;2023-02-28T12:23:46;5.20;98.80
20700;DHT22;10511;51.232;9.420;2023-02-28T12:26:19;4.90;98.80
20700;DHT22;10511;51.232;9.420;2023-02-28T12:29:01;4.80;98.80
20700;DHT22;10511;51.232;9.420;2023-02-28T12:31:33;4.90;99.30
20700;DHT22;10511;51.232;9.420;2023-02-28T12:34:04;4.80;98.90
20700;DHT22;10511;51.232;9.420;2023-02-28T12:36:34;4.70;98.20
20700;DHT22;10511;51.232;9.420;2023-02-28T12:39:06;4.60;99.10
20700;DHT22;10511;51.232;9.420;2023-02-28T12:41:40;4.90;99.00
20700;DHT22;10511;51.232;9.420;2023-02-28T12:44:12;4.70;98.50
20700;DHT22;10511;51.232;9.420;2023-02-28T12:46:42;4.50;98.40
20700;DHT22;10511;51.232;9.420;2023-02-28T12:49:13;4.70;99.50
20700;DHT22;10511;51.232;9.420;2023-02-28T12:51:41;5.00;99.10
20700;DHT22;10511;51.232;9.420;2023-02-28T12:54:14;5.00;99.10
20700;DHT22;10511;51.232;9.420;2023-02-28T12:56:47;4.90;98.90
20700;DHT22;10511;51.232;9.420;2023-02-28T12:59:23;4.80;98.70
20700;DHT22;10511;51.232;9.420;2023-02-28T13:02:09;4.80;98.80
20700;DHT22;10511;51.232;9.420;2023-02-28T13:04:55;4.80;98.70
20700;DHT22;10511;51.232;9.420;2023-02-28T13:07:49;4.80;99.40
20700;DHT22;10511;51.232;9.420;2023-02-28T13:10:21;5.20;99.80
20700;DHT22;10511;51.232;9.420;2023-02-28T13:12:50;5.40;99.60
20700;DHT22;10511;51.232;9.420;2023-02-28T13:15:21;4.90;98.10
20700;DHT22;10511;51.232;9.420;2023-02-28T13:17:51;4.70;98.90
20700;DHT22;10511;51.232;9.420;2023-02-28T13:20:20;4.70;98.50
20700;DHT22;10511;51.232;9.420;2023-02-28T13:22:48;4.70;99.60
20700;DHT22;10511;51.232;9.420;2023-02-28T13:25:50;4.60;99.60
20700;DHT22;10511;51.232;9.420;2023-02-28T13:34:40;4.70;99.10
20700;DHT22;10511;51.232;9.420;2023-02-28T13:37:33;4.80;99.90
20700;DHT22;10511;51.232;9.420;2023-02-28T13:42:49;4.60;99.30
20700;DHT22;10511;51.232;9.420;2023-02-28T13:45:26;4.70;99.80
20700;DHT22;10511;51.232;9.420;2023-02-28T13:47:59;4.60;99.50
20700;DHT22;10511;51.232;9.420;2023-02-28T13:50:33;4.50;99.70
20700;DHT22;10511;51.232;9.420;2023-02-28T13:53:28;4.40;99.20
20700;DHT22;10511;51.232;9.420;2023-02-28T13:56:03;4.60;99.90
20700;DHT22;10511;51.232;9.420;2023-02-28T13:58:43;4.60;99.40
20700;DHT22;10511;51.232;9.420;2023-02-28T14:01:34;4.50;99.80
20700;DHT22;10511;51.232;9.420;2023-02-28T14:04:47;4.40;99.70
20700;DHT22;10511;51.232;9.420;2023-02-28T14:07:20;4.30;99.40
20700;DHT22;10511;51.232;9.420;2023-02-28T14:09:56;4.30;99.70
20700;DHT22;10511;51.232;9.420;2023-02-28T14:13:02;4.40;99.90
20700;DHT22;10511;51.232;9.420;2023-02-28T14:15:55;4.40;99.90
20700;DHT22;10511;51.232;9.420;2023-02-28T14:18:25;4.50;99.90
20700;DHT22;10511;51.232;9.420;2023-02-28T14:20:58;4.60;99.90
20700;DHT22;10511;51.232;9.420;2023-02-28T14:23:52;4.40;99.90
20700;DHT22;10511;51.232;9.420;2023-02-28T14:26:36;4.30;99.90
20700;DHT22;10511;51.232;9.420;2023-02-28T14:29:22;4.40;99.90
20700;DHT22;10511;51.232;9.420;2023-02-28T14:31:58;4.50;99.90
20700;DHT22;10511;51.232;9.420;2023-02-28T14:34:42;4.40;99.90
20700;DHT22;10511;51.232;9.420;2023-02-28T14:37:16;4.30;99.90
20700;DHT22;10511;51.232;9.420;2023-02-28T14:39:45;4.30;99.90
20700;DHT22;10511;51.232;9.420;2023-02-28T14:42:29;4.30;99.90
20700;DHT22;10511;51.232;9.420;2023-02-28T14:44:57;4.20;99.90
20700;DHT22;10511;51.232;9.420;2023-02-28T14:47:27;4.30;99.90
20700;DHT22;10511;51.232;9.420;2023-02-28T14:49:55;4.40;99.90
20700;DHT22;10511;51.232;9.420;2023-02-28T14:52:25;4.30;99.90
20700;DHT22;10511;51.232;9.420;2023-02-28T14:54:55;4.30;99.90
20700;DHT22;10511;51.232;9.420;2023-02-28T14:57:25;4.30;99.90
20700;DHT22;10511;51.232;9.420;2023-02-28T15:00:00;4.30;99.90
20700;DHT22;10511;51.232;9.420;2023-02-28T15:02:31;4.10;99.90
20700;DHT22;10511;51.232;9.420;2023-02-28T15:05:09;4.20;99.90
20700;DHT22;10511;51.232;9.420;2023-02-28T15:07:43;4.20;99.90
20700;DHT22;10511;51.232;9.420;2023-02-28T15:10:16;4.10;99.90
20700;DHT22;10511;51.232;9.420;2023-02-28T15:12:49;4.00;99.90
20700;DHT22;10511;51.232;9.420;2023-02-28T15:15:18;4.00;99.90
20700;DHT22;10511;51.232;9.420;2023-02-28T15:17:49;4.00;99.90
20700;DHT22;10511;51.232;9.420;2023-02-28T15:20:18;3.90;99.90
20700;DHT22;10511;51.232;9.420;2023-02-28T15:22:49;3.90;99.90
20700;DHT22;10511;51.232;9.420;2023-02-28T15:25:19;3.90;99.90
20700;DHT22;10511;51.232;9.420;2023-02-28T15:27:50;3.90;99.90
20700;DHT22;10511;51.232;9.420;2023-02-28T15:30:20;3.90;99.90
20700;DHT22;10511;51.232;9.420;2023-02-28T15:33:04;3.80;99.90
20700;DHT22;10511;51.232;9.420;2023-02-28T15:35:32;3.70;99.90
20700;DHT22;10511;51.232;9.420;2023-02-28T15:38:03;3.80;99.90
20700;DHT22;10511;51.232;9.420;2023-02-28T15:40:33;3.80;99.90
20700;DHT22;10511;51.232;9.420;2023-02-28T15:43:06;3.80;99.90
20700;DHT22;10511;51.232;9.420;2023-02-28T15:45:36;3.70;99.90
20700;DHT22;10511;51.232;9.420;2023-02-28T15:48:16;3.70;99.90
20700;DHT22;10511;51.232;9.420;2023-02-28T15:50:44;3.70;99.90
20700;DHT22;10511;51.232;9.420;2023-02-28T15:53:15;3.70;99.90
20700;DHT22;10511;51.232;9.420;2023-02-28T15:55:44;3.70;99.90
20700;DHT22;10511;51.232;9.420;2023-02-28T15:58:12;3.60;99.90
20700;DHT22;10511;51.232;9.420;2023-02-28T16:00:39;3.50;99.90
20700;DHT22;10511;51.232;9.420;2023-02-28T16:03:24;3.40;99.90
20700;DHT22;10511;51.232;9.420;2023-02-28T16:08:58;3.40;99.90
20700;DHT22;10511;51.232;9.420;2023-02-28T16:11:26;3.40;99.90
20700;DHT22;10511;51.232;9.420;2023-02-28T16:13:53;3.30;99.90
20700;DHT22;10511;51.232;9.420;2023-02-28T16:16:22;3.20;99.90
20700;DHT22;10511;51.232;9.420;2023-02-28T16:18:50;3.20;99.90
20700;DHT22;10511;51.232;9.420;2023-02-28T16:21:18;3.10;99.90
20700;DHT22;10511;51.232;9.420;2023-02-28T16:23:45;3.10;99.90